world map with SYZ marked

SYZ - Airport

This information may not be accurate or current and is not valid for navigation or flight planning. No warranty of fitness for any purpose is made or implied.

flag of Iran

Donate via PayPal

Additional information is available on the NEW Great Circle Mapper

Location
City:  Shiraz, Fars, Iran
Name:International (Shahid Dastghaib International)
ICAO / IATA:OISS / SYZ

Details
Type:Airport (Aerodrome, Airfield)
Use:Public/Civil, Military
Latitude:29°32'21"N (29.539242)
Longitude:52°35'23"E (52.589786)
Datum:WGS 1984
Elevation:4920 ft (1500 m)
Runways:2
Longest:14345 × 148 ft (4372 × 45 m)

Time
Timezone:UTC+3:30 (DST+6:30)
Local Time:

Weather
METAR:OISS  041400Z 10004KT CAVOK 11/M11 Q1019 A3010
TAF:OISS  041100Z 0412/0518 14006KT CAVOK

Related Locations
Nearby:
Farthest:GMR: 11796 mi / 18985 km
Mangareva [Totegegie], Gambier Islands, PF

Find:

   beyond  
but within

Other Information
Maps:
Sources:

  


 


Great Circle Mapper   Great Circle Mapper
Great Circle Mapper FAQ   Great Circle Mapper FAQ
  Karl's Home Page
KLSē   KLSē Home
   GC on Facebook
Airlines of the World   Airlines of the World
Donate via PayPal


Copyright © 2004-2019, Karl L. Swartz. All rights reserved.
All trademarks mentioned herein belong to their respective owners.

Please see credits for attribution and copyright information.

Karl Swartz <karl@kls2.com>
  Powered by FreeBSD
Valid HTML 4.01!
Labeled with ICRA
hCard Microformat
Geo Microformat